Time;durP1;ratioP1;P1;durP2;ratioP2;P2;SDS_P1;SDS_P2;PMS_P1;PMS_P2;Temp;Humidity;BMP_temperature;BMP_pressure;BME280_temperature;BME280_humidity;BME280_pressure;Samples;Min_cycle;Max_cycle;Signal;HPM_P1;HPM_P2
2021/03/01 00:00:20;;;;;;;0.00;0.00;;;4.90;99.90;;;;;;5049215;28;20197;-79
2021/03/01 00:02:45;;;;;;;0.10;0.10;;;4.90;99.90;;;;;;5038150;28;20220;-80
2021/03/01 00:05:13;;;;;;;0.00;0.00;;;4.90;99.90;;;;;;5046443;28;20758;-80
2021/03/01 00:07:39;;;;;;;0.10;0.10;;;4.90;99.90;;;;;;5048304;28;20552;-80
2021/03/01 00:10:05;;;;;;;0.00;0.00;;;4.90;99.90;;;;;;5046351;28;20587;-80
2021/03/01 00:12:31;;;;;;;0.20;0.10;;;4.90;99.90;;;;;;5041407;28;20189;-80
2021/03/01 00:14:57;;;;;;;0.10;0.10;;;4.90;99.90;;;;;;5050569;28;20215;-80
2021/03/01 00:17:22;;;;;;;0.10;0.10;;;4.90;99.90;;;;;;5049140;28;20187;-79
2021/03/01 00:19:48;;;;;;;0.10;0.10;;;4.90;99.90;;;;;;5039968;28;20221;-80
2021/03/01 00:22:13;;;;;;;0.00;0.00;;;4.80;99.90;;;;;;5046491;28;20216;-81
2021/03/01 00:24:39;;;;;;;0.00;0.00;;;4.70;99.90;;;;;;5050148;28;20192;-80
2021/03/01 00:27:05;;;;;;;0.47;0.47;;;4.70;99.90;;;;;;5049220;28;20268;-80
2021/03/01 00:29:30;;;;;;;0.00;0.00;;;4.70;99.90;;;;;;5041941;28;20220;-80
2021/03/01 00:31:56;;;;;;;0.10;0.10;;;4.60;99.90;;;;;;5035762;28;20194;-80
2021/03/01 00:34:21;;;;;;;0.10;0.10;;;4.60;99.90;;;;;;5043585;28;20249;-77
2021/03/01 00:36:47;;;;;;;0.70;0.20;;;4.60;99.90;;;;;;5034537;28;20210;-81
2021/03/01 00:39:12;;;;;;;0.00;0.00;;;4.50;99.90;;;;;;5051105;28;20201;-80
2021/03/01 00:41:38;;;;;;;0.20;0.20;;;4.60;99.90;;;;;;5042397;28;20272;-80
2021/03/01 00:44:03;;;;;;;0.00;0.00;;;4.50;99.90;;;;;;5046622;28;20215;-80
2021/03/01 00:46:29;;;;;;;0.40;0.20;;;4.50;99.90;;;;;;5048489;28;20211;-80
2021/03/01 00:48:55;;;;;;;0.00;0.00;;;4.50;99.90;;;;;;5042220;28;20186;-80
2021/03/01 00:51:20;;;;;;;0.20;0.20;;;4.40;99.90;;;;;;5047393;28;20270;-80
2021/03/01 00:53:46;;;;;;;0.03;0.03;;;4.50;99.90;;;;;;5044735;28;20236;-80
2021/03/01 00:56:11;;;;;;;0.00;0.00;;;4.50;99.90;;;;;;5051303;28;20269;-79
2021/03/01 00:58:37;;;;;;;0.10;0.10;;;4.50;99.90;;;;;;5046614;28;20295;-83
2021/03/01 01:01:03;;;;;;;0.10;0.10;;;4.50;99.90;;;;;;5046714;28;20193;-81
2021/03/01 01:03:29;;;;;;;0.10;0.10;;;4.50;99.90;;;;;;5050814;28;20213;-82
2021/03/01 01:05:54;;;;;;;0.10;0.10;;;4.50;99.90;;;;;;5047154;28;20722;-79
2021/03/01 01:08:20;;;;;;;0.00;0.00;;;4.50;99.90;;;;;;5049221;28;20188;-80
2021/03/01 01:10:45;;;;;;;0.00;0.00;;;4.50;99.90;;;;;;5038368;28;20197;-81
2021/03/01 01:13:11;;;;;;;0.10;0.10;;;4.60;99.90;;;;;;5046586;28;20185;-80
2021/03/01 01:15:37;;;;;;;0.20;0.20;;;4.60;99.90;;;;;;5041251;28;20744;-80
2021/03/01 01:18:04;;;;;;;0.00;0.00;;;4.60;99.90;;;;;;5047599;28;20188;-80
2021/03/01 01:20:30;;;;;;;0.10;0.10;;;4.50;99.90;;;;;;5043388;28;20212;-81
2021/03/01 01:22:56;;;;;;;0.10;0.10;;;4.40;99.90;;;;;;5044148;28;20299;-81
2021/03/01 01:25:21;;;;;;;0.20;0.20;;;4.30;99.90;;;;;;5046585;28;20199;-79
2021/03/01 01:27:47;;;;;;;0.30;0.30;;;4.30;99.90;;;;;;5039924;28;20217;-80
2021/03/01 01:30:17;;;;;;;0.10;0.10;;;4.30;99.90;;;;;;5043710;28;20207;-80
2021/03/01 01:32:43;;;;;;;0.00;0.00;;;4.30;99.90;;;;;;5051155;28;20193;-80
2021/03/01 01:35:10;;;;;;;0.00;0.00;;;4.30;99.90;;;;;;5040466;28;20703;-80
2021/03/01 01:37:36;;;;;;;0.10;0.10;;;4.30;99.90;;;;;;5052765;28;20219;-81
2021/03/01 01:40:04;;;;;;;0.10;0.10;;;4.30;99.90;;;;;;5047703;28;20187;-81
2021/03/01 01:42:30;;;;;;;0.00;0.00;;;4.20;99.90;;;;;;5039550;28;20214;-80
2021/03/01 01:44:56;;;;;;;0.10;0.10;;;4.20;99.90;;;;;;5037426;28;20739;-80
2021/03/01 01:47:21;;;;;;;0.30;0.30;;;4.20;99.90;;;;;;5052200;28;20184;-80
2021/03/01 01:49:47;;;;;;;0.00;0.00;;;4.20;99.90;;;;;;5048250;28;20191;-80
2021/03/01 01:52:12;;;;;;;0.00;0.00;;;4.20;99.90;;;;;;5051921;28;20188;-80
2021/03/01 01:54:39;;;;;;;0.00;0.00;;;4.20;99.90;;;;;;5043582;28;20195;-78
2021/03/01 01:57:05;;;;;;;0.00;0.00;;;4.20;99.90;;;;;;5051034;28;20196;-79
2021/03/01 01:59:31;;;;;;;0.10;0.10;;;4.20;99.90;;;;;;5050232;28;20265;-80
2021/03/01 02:01:57;;;;;;;0.47;0.23;;;4.20;99.90;;;;;;5042024;28;20298;-81
2021/03/01 02:04:30;;;;;;;0.03;0.03;;;4.20;99.90;;;;;;5042989;28;20216;-80
2021/03/01 02:07:28;;;;;;;0.30;0.30;;;4.20;99.90;;;;;;5043925;28;20614;-80
2021/03/01 02:10:24;;;;;;;0.20;0.20;;;4.20;99.90;;;;;;5064938;28;20222;-80
2021/03/01 02:13:01;;;;;;;0.00;0.00;;;4.10;99.90;;;;;;5051097;28;20192;-80
2021/03/01 02:15:33;;;;;;;0.00;0.00;;;4.10;99.90;;;;;;5051936;28;20293;-81
2021/03/01 02:17:58;;;;;;;0.00;0.00;;;4.20;99.90;;;;;;5055506;28;20593;-80
2021/03/01 02:20:24;;;;;;;0.00;0.00;;;4.10;99.90;;;;;;5050833;28;20276;-80
2021/03/01 02:22:49;;;;;;;0.40;0.37;;;4.20;99.90;;;;;;5056669;28;20254;-79
2021/03/01 02:25:18;;;;;;;0.03;0.03;;;4.20;99.90;;;;;;5053242;28;20215;-81
2021/03/01 02:27:50;;;;;;;0.00;0.00;;;4.20;99.90;;;;;;5055063;28;20184;-80
2021/03/01 02:30:24;;;;;;;0.10;0.10;;;4.20;99.90;;;;;;5052692;28;20582;-78
2021/03/01 02:32:55;;;;;;;0.40;0.40;;;4.20;99.90;;;;;;5053365;28;20567;-80
2021/03/01 02:35:22;;;;;;;0.10;0.10;;;4.10;99.90;;;;;;5051080;28;20693;-80
2021/03/01 02:37:49;;;;;;;0.00;0.00;;;4.10;99.90;;;;;;5047184;28;20562;-80
2021/03/01 02:40:18;;;;;;;0.00;0.00;;;4.10;99.90;;;;;;5053175;28;20201;-81
2021/03/01 02:42:45;;;;;;;0.10;0.10;;;4.00;99.90;;;;;;5053290;28;20716;-79
2021/03/01 02:45:11;;;;;;;0.10;0.10;;;4.00;99.90;;;;;;5050525;28;20204;-80
2021/03/01 02:47:37;;;;;;;0.10;0.10;;;4.00;99.90;;;;;;5051460;28;20194;-80
2021/03/01 02:50:03;;;;;;;0.40;0.30;;;4.00;99.90;;;;;;5049686;28;20916;-81
2021/03/01 02:52:30;;;;;;;0.83;0.30;;;4.00;99.90;;;;;;5051924;28;20196;-81
2021/03/01 02:54:56;;;;;;;0.20;0.10;;;4.00;99.90;;;;;;5048048;28;20221;-79
2021/03/01 02:57:24;;;;;;;0.10;0.10;;;3.90;99.90;;;;;;5050914;28;20182;-80
2021/03/01 02:59:53;;;;;;;0.60;0.60;;;3.80;99.90;;;;;;5051763;28;20602;-80
2021/03/01 03:02:21;;;;;;;0.00;0.00;;;3.80;99.90;;;;;;5052487;28;20207;-81
2021/03/01 03:04:48;;;;;;;0.10;0.10;;;3.70;99.90;;;;;;5054658;28;20297;-79
2021/03/01 03:07:14;;;;;;;0.33;0.30;;;3.70;99.90;;;;;;5049331;28;20187;-79
2021/03/01 03:09:43;;;;;;;0.10;0.10;;;3.50;99.90;;;;;;5051218;28;20341;-79
2021/03/01 03:12:09;;;;;;;0.10;0.10;;;3.20;99.90;;;;;;5055710;28;20191;-79
2021/03/01 03:14:37;;;;;;;0.10;0.10;;;3.20;99.90;;;;;;5056429;28;20193;-79
2021/03/01 03:17:03;;;;;;;0.10;0.10;;;3.00;99.90;;;;;;5052456;28;20199;-79
2021/03/01 03:19:28;;;;;;;0.20;0.20;;;2.90;99.90;;;;;;5053880;28;20787;-79
2021/03/01 03:21:54;;;;;;;0.20;0.20;;;2.90;99.90;;;;;;5052830;28;20226;-79
2021/03/01 03:24:20;;;;;;;0.03;0.03;;;2.90;99.90;;;;;;5054645;28;20254;-82
2021/03/01 03:26:45;;;;;;;0.00;0.00;;;2.80;99.90;;;;;;5049547;28;20202;-79
2021/03/01 03:29:11;;;;;;;0.10;0.10;;;2.80;99.90;;;;;;5048897;28;20655;-79
2021/03/01 03:31:37;;;;;;;0.20;0.20;;;2.80;99.90;;;;;;5052759;28;20182;-79
2021/03/01 03:34:03;;;;;;;0.20;0.20;;;2.80;99.90;;;;;;5052474;28;20186;-79
2021/03/01 03:36:32;;;;;;;0.20;0.20;;;2.80;99.90;;;;;;5049992;28;20288;-79
2021/03/01 03:39:08;;;;;;;0.00;0.00;;;2.90;99.90;;;;;;5052292;28;20183;-79
2021/03/01 03:41:36;;;;;;;0.10;0.10;;;2.90;99.90;;;;;;5054284;28;20197;-81
2021/03/01 03:44:04;;;;;;;0.10;0.10;;;3.00;99.90;;;;;;5048631;28;20268;-79
2021/03/01 03:46:30;;;;;;;0.00;0.00;;;3.00;99.90;;;;;;5042624;28;20214;-79
2021/03/01 03:48:57;;;;;;;0.00;0.00;;;3.00;99.90;;;;;;5045541;28;20193;-79
2021/03/01 03:51:26;;;;;;;0.10;0.10;;;3.00;99.90;;;;;;5052409;28;20610;-79
2021/03/01 03:53:57;;;;;;;0.10;0.10;;;3.00;99.90;;;;;;5046392;28;20186;-80
2021/03/01 03:56:27;;;;;;;0.00;0.00;;;3.00;99.90;;;;;;5045437;28;20233;-80
2021/03/01 03:58:59;;;;;;;0.60;0.10;;;3.00;99.90;;;;;;5048040;28;20205;-80
2021/03/01 04:01:27;;;;;;;4.80;0.20;;;3.00;99.90;;;;;;5050709;28;20307;-80
2021/03/01 04:03:57;;;;;;;0.10;0.10;;;2.90;99.90;;;;;;5047295;28;20263;-78
2021/03/01 04:06:24;;;;;;;0.10;0.10;;;2.90;99.90;;;;;;5046038;28;20210;-78
2021/03/01 04:08:52;;;;;;;0.10;0.10;;;2.80;99.90;;;;;;5041969;28;20279;-80
2021/03/01 04:11:22;;;;;;;0.00;0.00;;;2.80;99.90;;;;;;5039782;28;20197;-80
2021/03/01 04:13:50;;;;;;;0.87;0.37;;;2.70;99.90;;;;;;5051052;28;20196;-80
2021/03/01 04:16:17;;;;;;;0.20;0.20;;;2.70;99.90;;;;;;5047755;28;20220;-80
2021/03/01 04:18:47;;;;;;;0.10;0.10;;;2.70;99.90;;;;;;5050829;28;20213;-80
2021/03/01 04:21:13;;;;;;;0.00;0.00;;;2.70;99.90;;;;;;5043473;28;20201;-81
2021/03/01 04:23:42;;;;;;;0.10;0.10;;;2.60;99.90;;;;;;5046578;28;20210;-79
2021/03/01 04:26:08;;;;;;;0.37;0.30;;;2.60;99.90;;;;;;5051685;28;20228;-80
2021/03/01 04:28:34;;;;;;;0.10;0.10;;;2.50;99.90;;;;;;5050279;28;20268;-80
2021/03/01 04:31:05;;;;;;;0.00;0.00;;;2.50;99.90;;;;;;5053359;28;20216;-80
2021/03/01 04:33:33;;;;;;;0.07;0.07;;;2.50;99.90;;;;;;5054483;28;20714;-80
2021/03/01 04:36:00;;;;;;;0.00;0.00;;;2.50;99.90;;;;;;5041221;28;20202;-80
2021/03/01 04:38:25;;;;;;;0.67;0.07;;;2.50;99.90;;;;;;5046559;28;20583;-80
2021/03/01 04:40:52;;;;;;;0.10;0.10;;;2.40;99.90;;;;;;5051750;28;20189;-78
2021/03/01 04:43:20;;;;;;;0.00;0.00;;;2.40;99.90;;;;;;5043016;28;20241;-80
2021/03/01 04:45:49;;;;;;;0.00;0.00;;;2.40;99.90;;;;;;5053191;28;20211;-80
2021/03/01 04:48:15;;;;;;;0.10;0.10;;;2.40;99.90;;;;;;5051935;28;20181;-80
2021/03/01 04:50:42;;;;;;;0.10;0.10;;;2.40;99.90;;;;;;5047985;28;20186;-79
2021/03/01 04:53:08;;;;;;;0.10;0.10;;;2.40;99.90;;;;;;5053987;28;20185;-80
2021/03/01 04:55:34;;;;;;;0.30;0.13;;;2.30;99.90;;;;;;5048960;28;20218;-79
2021/03/01 04:58:01;;;;;;;0.40;0.10;;;2.30;99.90;;;;;;5045677;28;20192;-80
2021/03/01 05:00:27;;;;;;;0.07;0.07;;;2.30;99.90;;;;;;5045841;28;20198;-80
2021/03/01 05:02:54;;;;;;;1.40;0.37;;;2.30;99.90;;;;;;5049337;28;20221;-80
2021/03/01 05:05:20;;;;;;;0.00;0.00;;;2.20;99.90;;;;;;5050377;28;20206;-81
2021/03/01 05:07:47;;;;;;;0.10;0.10;;;2.20;99.90;;;;;;5054504;28;20251;-80
2021/03/01 05:10:13;;;;;;;0.00;0.00;;;2.10;99.90;;;;;;5039435;28;20191;-80
2021/03/01 05:12:39;;;;;;;0.20;0.20;;;2.10;99.90;;;;;;5054240;28;20201;-80
2021/03/01 05:15:05;;;;;;;0.00;0.00;;;2.00;99.90;;;;;;5049988;28;20207;-80
2021/03/01 05:17:31;;;;;;;0.13;0.13;;;2.00;99.90;;;;;;5050608;28;20186;-80
2021/03/01 05:19:57;;;;;;;0.10;0.10;;;2.00;99.90;;;;;;5053457;28;20737;-80
2021/03/01 05:22:22;;;;;;;0.37;0.07;;;1.90;99.90;;;;;;5052370;28;20213;-79
2021/03/01 05:24:48;;;;;;;0.23;0.23;;;1.90;99.90;;;;;;5053536;28;20217;-80
2021/03/01 05:27:13;;;;;;;0.00;0.00;;;1.80;99.90;;;;;;5054441;28;20280;-80
2021/03/01 05:29:39;;;;;;;0.10;0.10;;;1.90;99.90;;;;;;5048177;28;20182;-80
2021/03/01 05:32:05;;;;;;;0.10;0.10;;;1.90;99.90;;;;;;5044662;28;20229;-80
2021/03/01 05:34:38;;;;;;;0.10;0.10;;;1.90;99.90;;;;;;5055303;28;20186;-83
2021/03/01 05:37:03;;;;;;;0.00;0.00;;;1.90;99.90;;;;;;5059419;28;20196;-83
2021/03/01 05:39:29;;;;;;;0.00;0.00;;;1.90;99.90;;;;;;5055573;28;20174;-84
2021/03/01 05:41:55;;;;;;;0.03;0.03;;;2.00;99.90;;;;;;5056265;28;20293;-82
2021/03/01 05:44:20;;;;;;;0.00;0.00;;;2.10;99.90;;;;;;5052520;28;20646;-83
2021/03/01 05:46:48;;;;;;;0.20;0.20;;;2.20;99.90;;;;;;5057327;28;20293;-84
2021/03/01 05:49:14;;;;;;;0.10;0.10;;;2.30;99.90;;;;;;5055633;28;20187;-86
2021/03/01 05:51:44;;;;;;;0.03;0.03;;;2.40;99.90;;;;;;5050743;28;20221;-89
2021/03/01 05:54:13;;;;;;;0.20;0.20;;;2.50;99.90;;;;;;5056323;28;20186;-87
2021/03/01 05:56:39;;;;;;;2.30;0.27;;;2.60;99.90;;;;;;5054432;28;20202;-84
2021/03/01 05:59:05;;;;;;;0.57;0.37;;;2.60;99.90;;;;;;5042260;28;20186;-86
2021/03/01 06:01:31;;;;;;;2.00;0.13;;;2.50;99.90;;;;;;5054719;28;20196;-82
2021/03/01 06:03:57;;;;;;;0.90;0.43;;;2.40;99.90;;;;;;5049412;28;20220;-83
2021/03/01 06:06:23;;;;;;;0.07;0.07;;;2.50;99.90;;;;;;5050159;28;20206;-83
2021/03/01 06:08:48;;;;;;;0.10;0.10;;;2.50;99.90;;;;;;5046771;28;20182;-82
2021/03/01 06:11:14;;;;;;;0.00;0.00;;;2.60;99.90;;;;;;5053385;28;20597;-84
2021/03/01 06:13:40;;;;;;;0.13;0.03;;;2.60;99.90;;;;;;5056112;28;20654;-85
2021/03/01 06:16:06;;;;;;;0.10;0.10;;;2.60;99.90;;;;;;5056509;28;20217;-84
2021/03/01 06:18:32;;;;;;;0.30;0.30;;;2.80;99.90;;;;;;5049187;28;20659;-83
2021/03/01 06:21:11;;;;;;;1.40;0.57;;;2.90;99.90;;;;;;5048617;28;20231;-83
2021/03/01 06:23:39;;;;;;;0.30;0.30;;;3.00;99.90;;;;;;5048334;28;20213;-86
2021/03/01 06:26:30;;;;;;;0.10;0.10;;;3.00;99.90;;;;;;5050497;28;20218;-82
2021/03/01 06:29:08;;;;;;;0.07;0.07;;;3.10;99.90;;;;;;5055165;28;20823;-83
2021/03/01 06:31:38;;;;;;;0.10;0.10;;;3.10;99.90;;;;;;5053780;28;20634;-82
2021/03/01 06:34:29;;;;;;;0.00;0.00;;;3.10;99.90;;;;;;5053241;28;20213;-83
2021/03/01 06:37:08;;;;;;;0.13;0.13;;;3.10;99.90;;;;;;5049525;28;20190;-84
2021/03/01 06:39:46;;;;;;;0.13;0.13;;;3.10;99.90;;;;;;5054585;28;20212;-84
2021/03/01 06:42:20;;;;;;;0.03;0.03;;;3.00;99.90;;;;;;5042366;28;20211;-83
2021/03/01 06:44:57;;;;;;;0.00;0.00;;;3.00;99.90;;;;;;5055451;28;20327;-83
2021/03/01 06:47:48;;;;;;;0.47;0.33;;;3.30;99.90;;;;;;5052993;28;20177;-82
2021/03/01 06:50:23;;;;;;;0.10;0.10;;;3.50;99.90;;;;;;5045146;28;20177;-85
2021/03/01 06:52:49;;;;;;;0.10;0.10;;;3.80;99.90;;;;;;5052168;28;20193;-87
2021/03/01 06:55:54;;;;;;;0.27;0.27;;;3.90;99.90;;;;;;5051183;28;20209;-83
2021/03/01 06:58:41;;;;;;;0.20;0.20;;;4.10;99.90;;;;;;5045881;28;20178;-83
2021/03/01 07:01:18;;;;;;;0.27;0.27;;;4.30;99.90;;;;;;5040591;28;20173;-84
2021/03/01 07:03:46;;;;;;;0.10;0.10;;;4.40;99.90;;;;;;5037492;28;20203;-82
2021/03/01 07:06:12;;;;;;;0.30;0.30;;;4.40;99.90;;;;;;5051696;28;20284;-82
2021/03/01 07:08:42;;;;;;;0.37;0.37;;;4.50;99.90;;;;;;5049420;28;20179;-82
2021/03/01 07:11:31;;;;;;;0.10;0.10;;;4.50;99.90;;;;;;5049329;28;20236;-82
2021/03/01 07:14:20;;;;;;;0.80;0.80;;;4.60;99.90;;;;;;5052620;28;20186;-82
2021/03/01 07:16:48;;;;;;;0.37;0.37;;;4.70;99.90;;;;;;5038036;28;20313;-82
2021/03/01 07:19:20;;;;;;;0.10;0.10;;;4.80;99.90;;;;;;5048093;28;20589;-83
2021/03/01 07:21:48;;;;;;;0.33;0.27;;;4.90;99.90;;;;;;5050918;28;20237;-82
2021/03/01 07:24:19;;;;;;;0.07;0.07;;;5.00;99.90;;;;;;5052679;28;20231;-83
2021/03/01 07:26:46;;;;;;;0.20;0.20;;;5.10;99.90;;;;;;5052433;28;20232;-83
2021/03/01 07:29:14;;;;;;;0.10;0.10;;;5.30;99.90;;;;;;5053462;28;20191;-84
2021/03/01 07:31:42;;;;;;;0.13;0.13;;;5.40;99.90;;;;;;5046653;28;20219;-86
2021/03/01 07:34:09;;;;;;;0.30;0.30;;;5.60;99.90;;;;;;5054420;28;20214;-83
2021/03/01 07:36:36;;;;;;;0.20;0.20;;;5.70;99.90;;;;;;5047093;28;20215;-83
2021/03/01 07:39:05;;;;;;;0.17;0.17;;;5.80;99.90;;;;;;5044358;28;20203;-83
2021/03/01 07:41:30;;;;;;;0.27;0.20;;;5.90;99.90;;;;;;5044245;28;20192;-82
2021/03/01 07:43:57;;;;;;;0.10;0.10;;;6.00;99.90;;;;;;5054289;28;20579;-83
2021/03/01 07:46:28;;;;;;;0.83;0.13;;;6.10;99.90;;;;;;5051249;28;20209;-82
2021/03/01 07:48:55;;;;;;;0.10;0.10;;;6.20;99.90;;;;;;5061113;28;20181;-85
2021/03/01 07:51:48;;;;;;;0.00;0.00;;;6.40;99.90;;;;;;5060776;28;20322;-83
2021/03/01 07:54:15;;;;;;;0.10;0.10;;;6.50;99.90;;;;;;5048294;28;20181;-85
2021/03/01 07:56:42;;;;;;;0.40;0.40;;;6.70;99.90;;;;;;5055628;28;20276;-82
2021/03/01 07:59:09;;;;;;;0.73;0.30;;;6.80;99.90;;;;;;5055865;28;20181;-82
2021/03/01 08:01:36;;;;;;;0.90;0.57;;;6.90;99.90;;;;;;5053653;28;20186;-82
2021/03/01 08:04:02;;;;;;;0.33;0.33;;;7.10;99.90;;;;;;5055094;28;20217;-84
2021/03/01 08:06:56;;;;;;;1.60;0.37;;;7.20;99.90;;;;;;5052647;28;20251;-82
2021/03/01 08:10:00;;;;;;;0.33;0.27;;;7.30;99.90;;;;;;5055985;28;20177;-87
2021/03/01 08:12:29;;;;;;;0.10;0.10;;;7.40;99.90;;;;;;5054215;28;20189;-88
2021/03/01 08:14:58;;;;;;;0.43;0.43;;;7.30;99.90;;;;;;5046219;28;20217;-83
2021/03/01 08:17:28;;;;;;;2.73;0.97;;;7.30;99.90;;;;;;5056934;28;20200;-84
2021/03/01 08:19:59;;;;;;;0.30;0.30;;;7.30;99.90;;;;;;5055189;28;20185;-83
2021/03/01 08:22:25;;;;;;;0.10;0.10;;;7.30;99.90;;;;;;5055083;28;20251;-83
2021/03/01 08:24:51;;;;;;;0.03;0.03;;;7.40;99.90;;;;;;5054772;28;20209;-83
2021/03/01 08:27:30;;;;;;;0.93;0.50;;;7.50;99.90;;;;;;5055626;28;20182;-85
2021/03/01 08:30:18;;;;;;;0.50;0.50;;;7.60;99.90;;;;;;5055113;28;20169;-84
2021/03/01 08:33:04;;;;;;;0.13;0.13;;;7.70;99.90;;;;;;5054941;28;20221;-83
2021/03/01 08:35:29;;;;;;;0.23;0.23;;;7.80;99.90;;;;;;5054922;28;20314;-83
2021/03/01 08:37:55;;;;;;;0.23;0.23;;;7.90;99.90;;;;;;5054511;28;20209;-84
2021/03/01 08:40:22;;;;;;;3.80;0.30;;;8.00;99.90;;;;;;5055296;28;20232;-84
2021/03/01 08:42:59;;;;;;;0.30;0.30;;;8.20;99.90;;;;;;5050523;28;20289;-87
2021/03/01 08:45:36;;;;;;;0.10;0.10;;;8.40;99.90;;;;;;5055673;28;20201;-84
2021/03/01 08:48:03;;;;;;;0.17;0.17;;;8.50;99.90;;;;;;5058264;28;20248;-84
2021/03/01 08:50:39;;;;;;;0.63;0.43;;;8.70;99.90;;;;;;5057733;28;20178;-83
2021/03/01 08:53:06;;;;;;;0.67;0.27;;;8.90;99.90;;;;;;5060110;28;20199;-83
2021/03/01 08:55:34;;;;;;;0.27;0.27;;;9.10;99.90;;;;;;5054034;28;20237;-82
2021/03/01 08:58:04;;;;;;;0.20;0.20;;;9.20;99.90;;;;;;5049700;28;20663;-89
2021/03/01 09:00:37;;;;;;;0.10;0.10;;;9.30;99.90;;;;;;5054559;28;20191;-83
2021/03/01 09:03:25;;;;;;;0.20;0.20;;;9.30;99.90;;;;;;5051813;28;20304;-82
2021/03/01 09:06:33;;;;;;;0.00;0.00;;;9.40;99.90;;;;;;5046860;28;20659;-84
2021/03/01 09:08:59;;;;;;;0.20;0.20;;;9.40;99.90;;;;;;5052423;28;20194;-84
2021/03/01 09:11:44;;;;;;;0.30;0.30;;;9.60;99.90;;;;;;5058544;28;20335;-84
2021/03/01 09:14:14;;;;;;;0.70;0.50;;;10.00;99.90;;;;;;5056874;28;20189;-84
2021/03/01 09:16:54;;;;;;;0.20;0.20;;;10.10;99.90;;;;;;5053994;28;20212;-84
2021/03/01 09:19:21;;;;;;;0.30;0.30;;;10.30;99.90;;;;;;5053361;28;20271;-83
2021/03/01 09:21:54;;;;;;;0.20;0.20;;;10.20;99.90;;;;;;5056305;28;20214;-84
2021/03/01 09:24:19;;;;;;;0.30;0.30;;;10.10;99.90;;;;;;5057834;28;20650;-89
2021/03/01 09:26:45;;;;;;;0.97;0.50;;;10.30;99.90;;;;;;5054196;28;20206;-85
2021/03/01 09:29:19;;;;;;;0.10;0.10;;;10.20;99.90;;;;;;5047528;28;20191;-86
2021/03/01 09:31:50;;;;;;;0.77;0.63;;;10.40;99.90;;;;;;5055522;28;20191;-82
2021/03/01 09:34:17;;;;;;;2.27;1.20;;;9.90;99.90;;;;;;5052663;28;20492;-84
2021/03/01 09:36:48;;;;;;;0.53;0.40;;;10.10;99.90;;;;;;5054800;28;20211;-83
2021/03/01 09:39:36;;;;;;;0.37;0.37;;;10.50;99.90;;;;;;5039004;28;20199;-83
2021/03/01 09:42:01;;;;;;;0.10;0.10;;;10.30;99.90;;;;;;5051961;28;20189;-83
2021/03/01 09:44:33;;;;;;;1.13;0.47;;;10.60;99.90;;;;;;5049699;28;20186;-84
2021/03/01 09:47:00;;;;;;;0.40;0.40;;;10.60;99.90;;;;;;5054438;28;20224;-83
2021/03/01 09:49:28;;;;;;;5.63;0.63;;;10.30;99.90;;;;;;5052921;28;20196;-85
2021/03/01 09:51:55;;;;;;;0.53;0.53;;;9.90;99.90;;;;;;5047781;28;20248;-84
2021/03/01 09:54:24;;;;;;;1.33;1.17;;;9.80;99.90;;;;;;5043162;28;20184;-83
2021/03/01 09:56:53;;;;;;;0.87;0.70;;;9.80;99.90;;;;;;5050867;28;20350;-83
2021/03/01 09:59:36;;;;;;;2.67;0.20;;;10.10;99.90;;;;;;5054986;28;20721;-85
2021/03/01 10:02:13;;;;;;;2.20;1.73;;;10.50;99.90;;;;;;5054019;28;20312;-84
2021/03/01 10:04:40;;;;;;;0.30;0.30;;;10.60;99.90;;;;;;5049887;28;20179;-83
2021/03/01 10:07:27;;;;;;;1.10;1.00;;;10.80;99.90;;;;;;5048055;28;20197;-85
2021/03/01 10:09:54;;;;;;;0.50;0.50;;;10.60;99.90;;;;;;5051984;28;20200;-84
2021/03/01 10:12:21;;;;;;;0.50;0.50;;;10.80;99.90;;;;;;5055365;28;20914;-84
2021/03/01 10:14:47;;;;;;;1.53;0.97;;;10.60;99.90;;;;;;5055302;28;20203;-84
2021/03/01 10:17:24;;;;;;;0.47;0.47;;;10.30;99.90;;;;;;5050322;28;20733;-89
2021/03/01 10:19:50;;;;;;;0.73;0.67;;;10.50;99.90;;;;;;5052947;28;20278;-86
2021/03/01 10:22:16;;;;;;;1.30;0.80;;;10.40;99.90;;;;;;5051470;28;20335;-84
2021/03/01 10:24:47;;;;;;;1.63;0.97;;;10.20;99.90;;;;;;5055737;28;20657;-84
2021/03/01 10:27:13;;;;;;;0.87;0.80;;;10.30;99.90;;;;;;5048215;28;20208;-83
2021/03/01 10:29:41;;;;;;;0.60;0.60;;;10.30;99.90;;;;;;5048317;28;20242;-81
2021/03/01 10:32:22;;;;;;;0.30;0.30;;;10.70;99.90;;;;;;5047789;28;20190;-85
2021/03/01 10:34:49;;;;;;;1.10;0.70;;;10.40;99.90;;;;;;5053775;28;20235;-85
2021/03/01 10:37:15;;;;;;;0.30;0.30;;;10.70;99.90;;;;;;5052170;28;20236;-86
2021/03/01 10:39:42;;;;;;;3.47;2.13;;;10.60;99.90;;;;;;5045542;28;20224;-87
2021/03/01 10:42:19;;;;;;;0.87;0.70;;;10.50;99.90;;;;;;5050226;28;20680;-86
2021/03/01 10:44:54;;;;;;;0.37;0.37;;;10.90;99.90;;;;;;5050561;28;20306;-86
2021/03/01 10:47:28;;;;;;;1.63;1.10;;;10.40;99.90;;;;;;5047675;28;20187;-86
2021/03/01 10:50:05;;;;;;;0.30;0.30;;;10.40;99.90;;;;;;5047793;28;20227;-86
2021/03/01 10:52:30;;;;;;;0.67;0.63;;;10.70;99.90;;;;;;5046181;28;20268;-86
2021/03/01 10:54:58;;;;;;;1.53;1.37;;;11.00;99.90;;;;;;5041003;28;20628;-86
2021/03/01 10:57:24;;;;;;;0.93;0.77;;;11.40;99.90;;;;;;5051084;28;20181;-86
2021/03/01 10:59:52;;;;;;;2.63;1.27;;;11.40;99.90;;;;;;5049846;28;20192;-86
2021/03/01 11:02:18;;;;;;;0.33;0.33;;;11.70;99.90;;;;;;5043490;28;20253;-85
2021/03/01 11:04:47;;;;;;;0.40;0.40;;;11.20;99.90;;;;;;5050103;28;20182;-85
2021/03/01 11:07:14;;;;;;;0.33;0.33;;;11.50;99.90;;;;;;5042053;28;20734;-90
2021/03/01 11:09:39;;;;;;;0.40;0.40;;;11.20;99.90;;;;;;5040112;28;20225;-88
2021/03/01 11:12:06;;;;;;;0.43;0.43;;;11.60;99.90;;;;;;5051271;28;20216;-88
2021/03/01 11:14:32;;;;;;;0.23;0.23;;;11.90;99.90;;;;;;5048305;28;20205;-89
2021/03/01 11:16:58;;;;;;;0.30;0.30;;;12.20;99.90;;;;;;5044674;28;20638;-87
2021/03/01 11:19:25;;;;;;;1.53;1.20;;;12.30;99.90;;;;;;5049359;23;20253;-82
2021/03/01 11:21:51;;;;;;;0.63;0.63;;;12.40;99.90;;;;;;5019505;28;20179;-81
2021/03/01 11:24:21;;;;;;;0.57;0.43;;;12.60;99.90;;;;;;5021035;28;20181;-81
2021/03/01 11:26:47;;;;;;;0.97;0.30;;;12.60;99.90;;;;;;5027546;28;20690;-82
2021/03/01 11:29:12;;;;;;;0.40;0.40;;;12.20;99.90;;;;;;5022098;28;20205;-81
2021/03/01 11:31:38;;;;;;;0.60;0.60;;;12.40;99.90;;;;;;5020052;28;20186;-81
2021/03/01 11:34:06;;;;;;;0.50;0.50;;;12.00;99.90;;;;;;5019318;28;20690;-81
2021/03/01 11:36:33;;;;;;;1.80;0.60;;;12.30;99.90;;;;;;5021261;28;20178;-82
2021/03/01 11:38:58;;;;;;;0.50;0.50;;;12.00;99.90;;;;;;5011139;28;20568;-81
2021/03/01 11:41:25;;;;;;;0.40;0.40;;;12.10;99.90;;;;;;5018820;28;20277;-82
2021/03/01 11:43:52;;;;;;;0.50;0.20;;;11.90;99.90;;;;;;5017046;28;20244;-82
2021/03/01 11:46:18;;;;;;;0.63;0.60;;;12.00;99.90;;;;;;5020945;28;20562;-82
2021/03/01 11:48:44;;;;;;;2.10;0.90;;;12.10;99.90;;;;;;5019050;28;20198;-81
2021/03/01 11:51:10;;;;;;;0.50;0.50;;;12.20;99.90;;;;;;5010384;28;20183;-82
2021/03/01 11:53:37;;;;;;;0.20;0.20;;;12.30;99.90;;;;;;5011910;28;20194;-82
2021/03/01 11:56:03;;;;;;;2.47;2.27;;;12.70;99.90;;;;;;5014605;28;20205;-82
2021/03/01 11:58:28;;;;;;;0.30;0.30;;;12.50;99.90;;;;;;5019788;28;20839;-82
2021/03/01 12:00:54;;;;;;;0.43;0.43;;;12.80;99.90;;;;;;5014706;28;20190;-81
2021/03/01 12:03:20;;;;;;;0.57;0.27;;;12.50;99.90;;;;;;5008135;28;20234;-81
2021/03/01 12:05:45;;;;;;;4.53;0.70;;;12.60;99.90;;;;;;5018536;28;20656;-82
2021/03/01 12:08:11;;;;;;;0.57;0.57;;;12.60;99.90;;;;;;5017864;28;20205;-81
2021/03/01 12:10:37;;;;;;;1.87;0.70;;;12.40;99.90;;;;;;5017067;28;20545;-82
2021/03/01 12:13:04;;;;;;;1.43;0.83;;;12.60;99.90;;;;;;5018399;28;20219;-82
2021/03/01 12:15:29;;;;;;;1.40;0.43;;;12.60;99.90;;;;;;5012023;28;20188;-79
2021/03/01 12:17:56;;;;;;;0.50;0.37;;;12.70;99.90;;;;;;5018690;28;20252;-79
2021/03/01 12:20:21;;;;;;;0.47;0.47;;;13.10;99.90;;;;;;5006478;28;20896;-79
2021/03/01 12:22:47;;;;;;;0.77;0.60;;;13.20;99.90;;;;;;5007499;28;20218;-79
2021/03/01 12:25:12;;;;;;;0.43;0.43;;;13.10;99.90;;;;;;5009144;28;20187;-81
2021/03/01 12:27:38;;;;;;;0.40;0.40;;;13.10;99.90;;;;;;5008838;28;20198;-81
2021/03/01 12:30:05;;;;;;;0.20;0.20;;;13.40;99.90;;;;;;5010318;28;20564;-80
2021/03/01 12:32:31;;;;;;;0.77;0.50;;;13.50;99.90;;;;;;5011511;28;20185;-80
2021/03/01 12:34:58;;;;;;;0.70;0.33;;;13.70;99.90;;;;;;5010225;28;20199;-81
2021/03/01 12:37:25;;;;;;;2.40;0.50;;;13.50;99.90;;;;;;5012510;28;20562;-81
2021/03/01 12:39:50;;;;;;;0.20;0.20;;;13.60;99.90;;;;;;5010183;28;20207;-81
2021/03/01 12:42:16;;;;;;;0.63;0.50;;;13.70;99.90;;;;;;5008761;28;20307;-81
2021/03/01 12:44:41;;;;;;;0.80;0.80;;;12.80;99.90;;;;;;5007527;28;20190;-80
2021/03/01 12:47:07;;;;;;;0.87;0.87;;;13.10;99.90;;;;;;5013107;28;20191;-83
2021/03/01 12:49:32;;;;;;;0.87;0.77;;;13.10;99.90;;;;;;5010408;28;20686;-81
2021/03/01 12:51:58;;;;;;;0.43;0.43;;;13.30;99.90;;;;;;5010687;28;20218;-80
2021/03/01 12:54:23;;;;;;;0.73;0.60;;;13.40;99.90;;;;;;5012015;28;20186;-80
2021/03/01 12:56:49;;;;;;;0.57;0.57;;;13.60;99.90;;;;;;5010604;28;20278;-81
2021/03/01 12:59:15;;;;;;;2.13;0.30;;;13.50;99.90;;;;;;5017830;28;20205;-81
2021/03/01 13:01:41;;;;;;;0.20;0.20;;;13.40;99.90;;;;;;5018425;28;20179;-81
2021/03/01 13:04:06;;;;;;;0.30;0.30;;;13.30;99.90;;;;;;5015332;28;20287;-81